PWSweather.com
Personal Weather Stations
Station Observations
PWSLORIS
The Farm At Fox Bay, Loris, SC 29569

The Farm At Fox BayLoris, SC 29569

Lat: 34.067097, Lon: -78.86907

Elevation: 108

Station Type: Davis Vantage Pro2 with 24 hr. FARS and solar

http://www.lorisweather.com

High Low Average
Temperature 47.4°F8.6°C 36.0°F2.2°C 42.5°F5.8°C
Dew Point 45.1°F7.3°C 33.6°F0.9°C 40.3°F4.6°C
Winds 11.5 mph 18.5 kmh Calm Calm 5.0 mph S8.0 kmh S
Wind Gusts 19.6 mph31.5 kmh -- 8.0 mph12.9 kmh
Humidity 94% 89% 92%
Pressure 29.88 in1011.9 mb 29.58 in1001.7 mb -
Precipitation 0.44 in11.2 mm - -
Hour Temp Dew Point Humidity Winds Wind Gusts Pressure Precip Precip Rate Daily Precip Total
12:00 AM 47.4°F8.6°C 44.6°F7.0°C 90% 2.3 mph E3.7 kmh E 3.5 mph5.6 kmh 29.86 in1011.2 mb - 0.01 in0.3 mm 0.04 in1.0 mm
12:15 AM 46.9°F8.3°C 44.4°F6.9°C 91% 3.5 mph ENE5.6 kmh ENE 4.6 mph7.4 kmh 29.86 in1011.2 mb - 0.01 in0.3 mm 0.05 in1.3 mm
12:30 AM 46.5°F8.1°C 44.0°F6.7°C 91% 2.3 mph ENE3.7 kmh ENE 3.5 mph5.6 kmh 29.85 in1010.8 mb - 0.02 in0.5 mm 0.07 in1.8 mm
12:45 AM 46.5°F8.1°C 44.0°F6.7°C 91% 1.2 mph NE1.9 kmh NE 1.2 mph1.9 kmh 29.85 in1010.8 mb - 0.02 in0.5 mm 0.09 in2.3 mm
01:00 AM 46.3°F7.9°C 43.8°F6.6°C 91% 2.3 mph NE3.7 kmh NE 3.5 mph5.6 kmh 29.84 in1010.5 mb - 0.02 in0.5 mm 0.11 in2.8 mm
01:15 AM 46.1°F7.8°C 43.6°F6.4°C 91% 5.8 mph NE9.3 kmh NE 8.1 mph13.0 kmh 29.84 in1010.5 mb - 0.02 in0.5 mm 0.13 in3.3 mm
01:30 AM 45.9°F7.7°C 43.7°F6.5°C 92% 4.6 mph E7.4 kmh E 5.8 mph9.3 kmh 29.83 in1010.2 mb - 0.02 in0.5 mm 0.15 in3.8 mm
01:45 AM 45.7°F7.6°C 43.5°F6.4°C 92% 4.6 mph ENE7.4 kmh ENE 5.8 mph9.3 kmh 29.81 in1009.5 mb - 0.00 in0.0 mm 0.15 in3.8 mm
02:00 AM 45.5°F7.5°C 43.3°F6.3°C 92% 5.8 mph ENE9.3 kmh ENE 6.9 mph11.1 kmh 29.80 in1009.1 mb - 0.01 in0.3 mm 0.16 in4.1 mm
02:15 AM 45.6°F7.6°C 43.4°F6.3°C 92% 3.5 mph ENE5.6 kmh ENE 9.2 mph14.8 kmh 29.79 in1008.8 mb - 0.00 in0.0 mm 0.16 in4.1 mm
02:30 AM 45.4°F7.4°C 43.2°F6.2°C 92% 6.9 mph NE11.1 kmh NE 9.2 mph14.8 kmh 29.77 in1008.1 mb - 0.00 in0.0 mm 0.16 in4.1 mm
02:45 AM 45.2°F7.3°C 43.0°F6.1°C 92% 8.1 mph NE13.0 kmh NE 12.7 mph20.4 kmh 29.76 in1007.8 mb - 0.00 in0.0 mm 0.16 in4.1 mm
03:00 AM 44.8°F7.1°C 42.6°F5.9°C 92% 5.8 mph NE9.3 kmh NE 11.5 mph18.5 kmh 29.75 in1007.5 mb - 0.00 in0.0 mm 0.16 in4.1 mm
03:15 AM 44.9°F7.2°C 43.0°F6.1°C 93% 4.6 mph ENE7.4 kmh ENE 6.9 mph11.1 kmh 29.75 in1007.5 mb - 0.00 in0.0 mm 0.16 in4.1 mm
03:30 AM 44.9°F7.2°C 43.0°F6.1°C 93% 2.3 mph NE3.7 kmh NE 4.6 mph7.4 kmh 29.74 in1007.1 mb - 0.00 in0.0 mm 0.16 in4.1 mm
03:45 AM 44.6°F7.0°C 42.7°F5.9°C 93% 6.9 mph ENE11.1 kmh ENE 10.4 mph16.7 kmh 29.74 in1007.1 mb - 0.00 in0.0 mm 0.16 in4.1 mm
04:00 AM 44.4°F6.9°C 42.5°F5.8°C 93% 2.3 mph NE3.7 kmh NE 4.6 mph7.4 kmh 29.74 in1007.1 mb - 0.00 in0.0 mm 0.16 in4.1 mm
04:15 AM 44.4°F6.9°C 42.5°F5.8°C 93% 3.5 mph ENE5.6 kmh ENE 4.6 mph7.4 kmh 29.74 in1007.1 mb - 0.00 in0.0 mm 0.16 in4.1 mm
04:30 AM 44.3°F6.8°C 42.4°F5.8°C 93% 4.6 mph ENE7.4 kmh ENE 8.1 mph13.0 kmh 29.73 in1006.8 mb - 0.00 in0.0 mm 0.16 in4.1 mm
04:45 AM 44.2°F6.8°C 42.3°F5.7°C 93% 4.6 mph ENE7.4 kmh ENE 6.9 mph11.1 kmh 29.73 in1006.8 mb - 0.00 in0.0 mm 0.16 in4.1 mm
05:00 AM 44.3°F6.8°C 42.4°F5.8°C 93% 3.5 mph E5.6 kmh E 6.9 mph11.1 kmh 29.73 in1006.8 mb - 0.00 in0.0 mm 0.16 in4.1 mm
05:15 AM 44.2°F6.8°C 42.3°F5.7°C 93% 4.6 mph ENE7.4 kmh ENE 10.4 mph16.7 kmh 29.72 in1006.4 mb - 0.00 in0.0 mm 0.16 in4.1 mm
05:30 AM 44.2°F6.8°C 42.3°F5.7°C 93% 2.3 mph NE3.7 kmh NE 3.5 mph5.6 kmh 29.72 in1006.4 mb - 0.00 in0.0 mm 0.16 in4.1 mm
05:45 AM 44.2°F6.8°C 42.3°F5.7°C 93% 2.3 mph ENE3.7 kmh ENE 3.5 mph5.6 kmh 29.72 in1006.4 mb - 0.00 in0.0 mm 0.16 in4.1 mm
06:00 AM 44.3°F6.8°C 42.4°F5.8°C 93% 2.3 mph NNE3.7 kmh NNE 4.6 mph7.4 kmh 29.73 in1006.8 mb - 0.00 in0.0 mm 0.16 in4.1 mm
06:15 AM 44.3°F6.8°C 42.4°F5.8°C 93% 1.2 mph ENE1.9 kmh ENE 3.5 mph5.6 kmh 29.72 in1006.4 mb - 0.00 in0.0 mm 0.16 in4.1 mm
06:30 AM 44.2°F6.8°C 42.3°F5.7°C 93% 3.5 mph ENE5.6 kmh ENE 4.6 mph7.4 kmh 29.71 in1006.1 mb - 0.00 in0.0 mm 0.16 in4.1 mm
06:45 AM 44.3°F6.8°C 42.4°F5.8°C 93% 4.6 mph NE7.4 kmh NE 9.2 mph14.8 kmh 29.70 in1005.8 mb - 0.00 in0.0 mm 0.16 in4.1 mm
07:00 AM 44.3°F6.8°C 42.4°F5.8°C 93% 4.6 mph NE7.4 kmh NE 5.8 mph9.3 kmh 29.71 in1006.1 mb - 0.00 in0.0 mm 0.16 in4.1 mm
07:15 AM 44.4°F6.9°C 42.5°F5.8°C 93% 1.2 mph ENE1.9 kmh ENE 3.5 mph5.6 kmh 29.71 in1006.1 mb - 0.00 in0.0 mm 0.16 in4.1 mm
07:30 AM 44.6°F7.0°C 43.0°F6.1°C 94% 3.5 mph NE5.6 kmh NE 5.8 mph9.3 kmh 29.71 in1006.1 mb - 0.00 in0.0 mm 0.16 in4.1 mm
07:45 AM 44.6°F7.0°C 42.7°F5.9°C 93% 3.5 mph NE5.6 kmh NE 3.5 mph5.6 kmh 29.70 in1005.8 mb - 0.00 in0.0 mm 0.16 in4.1 mm
08:00 AM 44.8°F7.1°C 42.9°F6.1°C 93% 1.2 mph ENE1.9 kmh ENE 4.6 mph7.4 kmh 29.70 in1005.8 mb - 0.00 in0.0 mm 0.16 in4.1 mm
08:15 AM 45.1°F7.3°C 43.5°F6.4°C 94% 1.2 mph NE1.9 kmh NE 3.5 mph5.6 kmh 29.70 in1005.8 mb - 0.00 in0.0 mm 0.16 in4.1 mm
08:30 AM 45.4°F7.4°C 43.5°F6.4°C 93% 2.3 mph E3.7 kmh E 4.6 mph7.4 kmh 29.69 in1005.4 mb - 0.00 in0.0 mm 0.16 in4.1 mm
08:45 AM 45.4°F7.4°C 43.5°F6.4°C 93% 2.3 mph NE3.7 kmh NE 3.5 mph5.6 kmh 29.70 in1005.8 mb - 0.00 in0.0 mm 0.16 in4.1 mm
09:00 AM 45.7°F7.6°C 43.8°F6.6°C 93% 1.2 mph NE1.9 kmh NE 3.5 mph5.6 kmh 29.70 in1005.8 mb - 0.00 in0.0 mm 0.16 in4.1 mm
09:15 AM 45.8°F7.7°C 43.9°F6.6°C 93% 1.2 mph NE1.9 kmh NE 2.3 mph3.7 kmh 29.69 in1005.4 mb - 0.00 in0.0 mm 0.16 in4.1 mm
09:30 AM 45.9°F7.7°C 44.0°F6.7°C 93% 2.3 mph E3.7 kmh E 4.6 mph7.4 kmh 29.69 in1005.4 mb - 0.00 in0.0 mm 0.16 in4.1 mm
09:45 AM 45.9°F7.7°C 44.0°F6.7°C 93% 2.3 mph ENE3.7 kmh ENE 4.6 mph7.4 kmh 29.69 in1005.4 mb - 0.00 in0.0 mm 0.16 in4.1 mm
10:00 AM 46.2°F7.9°C 44.3°F6.8°C 93% 3.5 mph ENE5.6 kmh ENE 6.9 mph11.1 kmh 29.67 in1004.7 mb - 0.00 in0.0 mm 0.16 in4.1 mm
10:15 AM 46.3°F7.9°C 44.4°F6.9°C 93% 1.2 mph NNE1.9 kmh NNE 3.5 mph5.6 kmh 29.66 in1004.4 mb - 0.01 in0.3 mm 0.17 in4.3 mm
10:30 AM 46.8°F8.2°C 44.8°F7.1°C 93% 3.5 mph NE5.6 kmh NE 4.6 mph7.4 kmh 29.65 in1004.1 mb - 0.00 in0.0 mm 0.17 in4.3 mm
10:45 AM 47.0°F8.3°C 45.1°F7.3°C 93% Calm Calm -- 29.65 in1004.1 mb - 0.00 in0.0 mm 0.17 in4.3 mm
11:00 AM 47.0°F8.3°C 45.1°F7.3°C 93% 3.5 mph N5.6 kmh N 6.9 mph11.1 kmh 29.65 in1004.1 mb - 0.00 in0.0 mm 0.17 in4.3 mm
11:15 AM 46.9°F8.3°C 45.0°F7.2°C 93% 1.2 mph N1.9 kmh N 2.3 mph3.7 kmh 29.64 in1003.7 mb - 0.00 in0.0 mm 0.17 in4.3 mm
11:30 AM 46.8°F8.2°C 44.9°F7.2°C 93% 2.3 mph NW3.7 kmh NW 4.6 mph7.4 kmh 29.65 in1004.1 mb - 0.00 in0.0 mm 0.17 in4.3 mm
11:45 AM 46.4°F8.0°C 44.5°F6.9°C 93% 4.6 mph NW7.4 kmh NW 9.2 mph14.8 kmh 29.64 in1003.7 mb - 0.00 in0.0 mm 0.17 in4.3 mm
12:00 PM 45.8°F7.7°C 43.6°F6.4°C 92% 4.6 mph NW7.4 kmh NW 5.8 mph9.3 kmh 29.64 in1003.7 mb - 0.00 in0.0 mm 0.17 in4.3 mm
12:15 PM 45.1°F7.3°C 42.9°F6.1°C 92% 6.9 mph NNW11.1 kmh NNW 10.4 mph16.7 kmh 29.68 in1005.1 mb - 0.01 in0.3 mm 0.18 in4.6 mm
12:30 PM 43.9°F6.6°C 41.7°F5.4°C 92% 5.8 mph NW9.3 kmh NW 8.1 mph13.0 kmh 29.70 in1005.8 mb - 0.07 in1.8 mm 0.25 in6.4 mm
12:45 PM 42.8°F6.0°C 40.9°F4.9°C 93% 6.9 mph N11.1 kmh N 12.7 mph20.4 kmh 29.66 in1004.4 mb - 0.04 in1.0 mm 0.29 in7.4 mm
01:00 PM 42.4°F5.8°C 40.2°F4.6°C 92% 5.8 mph N9.3 kmh N 10.4 mph16.7 kmh 29.65 in1004.1 mb - 0.04 in1.0 mm 0.33 in8.4 mm
01:15 PM 42.3°F5.7°C 40.1°F4.5°C 92% 3.5 mph N5.6 kmh N 6.9 mph11.1 kmh 29.66 in1004.4 mb - 0.02 in0.5 mm 0.35 in8.9 mm
01:30 PM 42.1°F5.6°C 39.9°F4.4°C 92% 6.9 mph N11.1 kmh N 11.5 mph18.5 kmh 29.65 in1004.1 mb - 0.02 in0.5 mm 0.37 in9.4 mm
01:45 PM 41.9°F5.5°C 39.7°F4.3°C 92% 4.6 mph N7.4 kmh N 6.9 mph11.1 kmh 29.64 in1003.7 mb - 0.02 in0.5 mm 0.39 in9.9 mm
02:00 PM 41.7°F5.4°C 39.5°F4.2°C 92% 6.9 mph NNE11.1 kmh NNE 12.7 mph20.4 kmh 29.61 in1002.7 mb - 0.02 in0.5 mm 0.41 in10.4 mm
02:15 PM 41.6°F5.3°C 39.4°F4.1°C 92% 8.1 mph NNE13.0 kmh NNE 11.5 mph18.5 kmh 29.60 in1002.4 mb - 0.00 in0.0 mm 0.41 in10.4 mm
02:30 PM 42.1°F5.6°C 39.9°F4.4°C 92% 9.2 mph NE14.8 kmh NE 15.0 mph24.1 kmh 29.58 in1001.7 mb - 0.00 in0.0 mm 0.41 in10.4 mm
02:45 PM 42.6°F5.9°C 40.5°F4.7°C 92% 4.6 mph NW7.4 kmh NW 6.9 mph11.1 kmh 29.61 in1002.7 mb - 0.00 in0.0 mm 0.41 in10.4 mm
03:00 PM 43.2°F6.2°C 41.0°F5.0°C 92% 8.1 mph NW13.0 kmh NW 13.8 mph22.2 kmh 29.63 in1003.4 mb - 0.00 in0.0 mm 0.41 in10.4 mm
03:15 PM 42.8°F6.0°C 40.7°F4.8°C 92% 8.1 mph NNW13.0 kmh NNW 11.5 mph18.5 kmh 29.64 in1003.7 mb - 0.00 in0.0 mm 0.41 in10.4 mm
03:30 PM 42.5°F5.8°C 40.1°F4.5°C 91% 8.1 mph NW13.0 kmh NW 10.4 mph16.7 kmh 29.65 in1004.1 mb - 0.00 in0.0 mm 0.41 in10.4 mm
03:45 PM 41.9°F5.5°C 39.5°F4.2°C 91% 5.8 mph NNW9.3 kmh NNW 11.5 mph18.5 kmh 29.66 in1004.4 mb - 0.00 in0.0 mm 0.41 in10.4 mm
04:00 PM 41.2°F5.1°C 38.7°F3.7°C 91% 8.1 mph NNW13.0 kmh NNW 13.8 mph22.2 kmh 29.66 in1004.4 mb - 0.00 in0.0 mm 0.41 in10.4 mm
04:15 PM 40.7°F4.8°C 38.3°F3.5°C 91% 8.1 mph NNW13.0 kmh NNW 11.5 mph18.5 kmh 29.66 in1004.4 mb - 0.00 in0.0 mm 0.41 in10.4 mm
04:30 PM 40.2°F4.6°C 37.8°F3.2°C 91% 6.9 mph NW11.1 kmh NW 9.2 mph14.8 kmh 29.68 in1005.1 mb - 0.00 in0.0 mm 0.41 in10.4 mm
04:45 PM 39.8°F4.3°C 37.1°F2.8°C 90% 11.5 mph NNW18.5 kmh NNW 19.6 mph31.5 kmh 29.68 in1005.1 mb - 0.00 in0.0 mm 0.41 in10.4 mm
05:00 PM 39.7°F4.3°C 37.0°F2.8°C 90% 4.6 mph NW7.4 kmh NW 10.4 mph16.7 kmh 29.69 in1005.4 mb - 0.00 in0.0 mm 0.41 in10.4 mm
05:15 PM 39.5°F4.2°C 36.8°F2.7°C 90% 8.1 mph NNW13.0 kmh NNW 10.4 mph16.7 kmh 29.70 in1005.8 mb - 0.00 in0.0 mm 0.41 in10.4 mm
05:30 PM 39.3°F4.1°C 36.3°F2.4°C 89% 6.9 mph NW11.1 kmh NW 10.4 mph16.7 kmh 29.71 in1006.1 mb - 0.00 in0.0 mm 0.41 in10.4 mm
05:45 PM 39.2°F4.0°C 36.2°F2.3°C 89% 9.2 mph NW14.8 kmh NW 18.4 mph29.6 kmh 29.72 in1006.4 mb - 0.00 in0.0 mm 0.41 in10.4 mm
06:00 PM 39.1°F3.9°C 36.1°F2.3°C 89% 8.1 mph NNW13.0 kmh NNW 17.3 mph27.8 kmh 29.73 in1006.8 mb - 0.00 in0.0 mm 0.41 in10.4 mm
06:15 PM 38.8°F3.8°C 36.1°F2.3°C 90% 5.8 mph NW9.3 kmh NW 9.2 mph14.8 kmh 29.74 in1007.1 mb - 0.00 in0.0 mm 0.41 in10.4 mm
06:30 PM 38.8°F3.8°C 36.1°F2.3°C 90% 5.8 mph NNW9.3 kmh NNW 11.5 mph18.5 kmh 29.75 in1007.5 mb - 0.00 in0.0 mm 0.41 in10.4 mm
06:45 PM 38.4°F3.6°C 35.7°F2.1°C 90% 8.1 mph NW13.0 kmh NW 11.5 mph18.5 kmh 29.76 in1007.8 mb - 0.00 in0.0 mm 0.41 in10.4 mm
07:00 PM 38.0°F3.3°C 35.1°F1.7°C 89% 5.8 mph NW9.3 kmh NW 13.8 mph22.2 kmh 29.77 in1008.1 mb - 0.00 in0.0 mm 0.41 in10.4 mm
07:15 PM 38.1°F3.4°C 35.1°F1.7°C 89% 5.8 mph NW9.3 kmh NW 12.7 mph20.4 kmh 29.78 in1008.5 mb - 0.00 in0.0 mm 0.41 in10.4 mm
07:30 PM 38.0°F3.3°C 35.0°F1.7°C 89% 5.8 mph NNW9.3 kmh NNW 9.2 mph14.8 kmh 29.79 in1008.8 mb - 0.00 in0.0 mm 0.41 in10.4 mm
07:45 PM 37.9°F3.3°C 34.9°F1.6°C 89% 11.5 mph NW18.5 kmh NW 18.4 mph29.6 kmh 29.80 in1009.1 mb - 0.00 in0.0 mm 0.41 in10.4 mm
08:00 PM 37.4°F3.0°C 34.5°F1.4°C 89% 6.9 mph N11.1 kmh N 11.5 mph18.5 kmh 29.81 in1009.5 mb - 0.00 in0.0 mm 0.41 in10.4 mm
08:15 PM 36.5°F2.5°C 33.9°F1.1°C 90% 5.8 mph NW9.3 kmh NW 9.2 mph14.8 kmh 29.82 in1009.8 mb - 0.02 in0.5 mm 0.43 in10.9 mm
08:30 PM 36.0°F2.2°C 33.6°F0.9°C 91% 6.9 mph NNW11.1 kmh NNW 9.2 mph14.8 kmh 29.83 in1010.2 mb - 0.01 in0.3 mm 0.44 in11.2 mm
08:45 PM 36.3°F2.4°C 33.9°F1.1°C 91% 4.6 mph NNW7.4 kmh NNW 11.5 mph18.5 kmh 29.83 in1010.2 mb - 0.01 in0.3 mm 0.44 in11.2 mm
09:00 PM 36.6°F2.6°C 34.5°F1.4°C 92% 6.9 mph NNW11.1 kmh NNW 10.4 mph16.7 kmh 29.84 in1010.5 mb - 0.00 in0.0 mm 0.44 in11.2 mm
09:15 PM 36.8°F2.7°C 34.7°F1.5°C 92% 3.5 mph NW5.6 kmh NW 4.6 mph7.4 kmh 29.85 in1010.8 mb - 0.00 in0.0 mm 0.44 in11.2 mm
09:30 PM 37.0°F2.8°C 34.9°F1.6°C 92% 5.8 mph NW9.3 kmh NW 8.1 mph13.0 kmh 29.85 in1010.8 mb - 0.00 in0.0 mm 0.44 in11.2 mm
09:45 PM 37.3°F2.9°C 35.2°F1.8°C 92% 2.3 mph NW3.7 kmh NW 5.8 mph9.3 kmh 29.86 in1011.2 mb - 0.00 in0.0 mm 0.44 in11.2 mm
10:00 PM 37.4°F3.0°C 35.3°F1.8°C 92% 8.1 mph NW13.0 kmh NW 10.4 mph16.7 kmh 29.86 in1011.2 mb - 0.00 in0.0 mm 0.44 in11.2 mm
10:15 PM 37.3°F2.9°C 35.2°F1.8°C 92% 5.8 mph NNW9.3 kmh NNW 11.5 mph18.5 kmh 29.86 in1011.2 mb - 0.00 in0.0 mm 0.44 in11.2 mm
10:30 PM 37.4°F3.0°C 35.3°F1.8°C 92% 2.3 mph NNW3.7 kmh NNW 10.4 mph16.7 kmh 29.86 in1011.2 mb - 0.00 in0.0 mm 0.44 in11.2 mm
10:45 PM 37.2°F2.9°C 35.1°F1.7°C 92% 3.5 mph NW5.6 kmh NW 5.8 mph9.3 kmh 29.86 in1011.2 mb - 0.00 in0.0 mm 0.44 in11.2 mm
11:00 PM 36.9°F2.7°C 34.8°F1.6°C 92% 3.5 mph NNW5.6 kmh NNW 5.8 mph9.3 kmh 29.86 in1011.2 mb - 0.00 in0.0 mm 0.42 in10.7 mm
11:15 PM 36.6°F2.6°C 34.5°F1.4°C 92% 4.6 mph NW7.4 kmh NW 9.2 mph14.8 kmh 29.86 in1011.2 mb - 0.00 in0.0 mm 0.42 in10.7 mm
11:30 PM 36.3°F2.4°C 34.2°F1.2°C 92% 1.2 mph NW1.9 kmh NW 1.2 mph1.9 kmh 29.87 in1011.5 mb - 0.00 in0.0 mm 0.42 in10.7 mm
11:45 PM 36.2°F2.3°C 34.1°F1.2°C 92% 1.2 mph NNW1.9 kmh NNW 3.5 mph5.6 kmh 29.88 in1011.9 mb - 0.00 in0.0 mm 0.42 in10.7 mm